Time;durP1;ratioP1;P1;durP2;ratioP2;P2;SDS_P1;SDS_P2;PMS_P1;PMS_P2;Temp;Humidity;BMP_temperature;BMP_pressure;BME280_temperature;BME280_humidity;BME280_pressure;Samples;Min_cycle;Max_cycle;Signal;HPM_P1;HPM_P2
2023/09/21 00:01:13;;;;;;;;;;;;;;;18.68;100.00;99954.94;5010962;28;19921;-72
2023/09/21 00:03:39;;;;;;;;;;;;;;;18.58;100.00;99953.41;4998385;28;19929;-73
2023/09/21 00:06:04;;;;;;;;;;;;;;;18.57;100.00;99945.44;5010181;28;19927;-73
2023/09/21 00:08:30;;;;;;;;;;;;;;;18.52;100.00;99948.72;5004690;28;20553;-71
2023/09/21 00:10:56;;;;;;;;;;;;;;;18.48;100.00;99939.28;4988758;28;20312;-71
2023/09/21 00:13:26;;;;;;;;;;;;;;;18.63;100.00;99938.41;5008448;28;19925;-72
2023/09/21 00:15:52;;;;;;;;;;;;;;;18.83;100.00;99941.28;4999610;28;19983;-76
2023/09/21 00:18:20;;;;;;;;;;;;;;;18.61;100.00;99941.28;5008303;28;19922;-72
2023/09/21 00:20:51;;;;;;;;;;;;;;;18.63;100.00;99935.69;4992283;28;19968;-72
2023/09/21 00:23:16;;;;;;;;;;;;;;;18.55;100.00;99929.31;5001393;28;19925;-74
2023/09/21 00:25:42;;;;;;;;;;;;;;;18.55;100.00;99918.44;4978459;28;19987;-75
2023/09/21 00:28:07;;;;;;;;;;;;;;;18.69;100.00;99924.84;4988225;28;19926;-79
2023/09/21 00:30:36;;;;;;;;;;;;;;;18.72;100.00;99915.44;4975428;28;20310;-71
2023/09/21 00:33:02;;;;;;;;;;;;;;;18.65;100.00;99906.41;4976680;28;19983;-73
2023/09/21 00:35:29;;;;;;;;;;;;;;;18.63;100.00;99905.78;4990607;28;20000;-72
2023/09/21 00:37:54;;;;;;;;;;;;;;;18.54;100.00;99897.75;4995299;28;20269;-73
2023/09/21 00:40:20;;;;;;;;;;;;;;;18.55;100.00;99898.56;4986022;28;20403;-71
2023/09/21 00:42:45;;;;;;;;;;;;;;;18.44;100.00;99900.78;4988473;28;19929;-76
2023/09/21 00:45:10;;;;;;;;;;;;;;;18.55;100.00;99887.69;4987493;28;20374;-73
2023/09/21 00:47:38;;;;;;;;;;;;;;;18.43;100.00;99896.38;4989620;28;19928;-73
2023/09/21 00:50:08;;;;;;;;;;;;;;;18.40;100.00;99898.66;4994986;28;19967;-72
2023/09/21 00:52:34;;;;;;;;;;;;;;;18.44;100.00;99891.78;5000367;28;20004;-74
2023/09/21 00:54:59;;;;;;;;;;;;;;;18.45;100.00;99885.31;4995271;28;20012;-72
2023/09/21 00:57:25;;;;;;;;;;;;;;;18.34;100.00;99892.09;5001062;28;19921;-73
2023/09/21 00:59:50;;;;;;;;;;;;;;;18.28;100.00;99874.72;4991852;28;19913;-71
2023/09/21 01:02:15;;;;;;;;;;;;;;;18.30;100.00;99874.50;4997225;28;20371;-72
2023/09/21 01:04:41;;;;;;;;;;;;;;;18.08;100.00;99870.97;4995711;28;20513;-72
2023/09/21 01:07:17;;;;;;;;;;;;;;;18.12;100.00;99870.38;5006921;28;19975;-72
2023/09/21 01:09:42;;;;;;;;;;;;;;;17.96;100.00;99863.28;4998715;28;20415;-72
2023/09/21 01:12:08;;;;;;;;;;;;;;;18.02;100.00;99864.41;4997504;28;19948;-73
2023/09/21 01:14:33;;;;;;;;;;;;;;;17.97;100.00;99856.81;5000410;28;20402;-74
2023/09/21 01:16:58;;;;;;;;;;;;;;;17.93;100.00;99850.06;5002199;28;20008;-73
2023/09/21 01:19:24;;;;;;;;;;;;;;;17.92;100.00;99845.69;4994556;28;19922;-72
2023/09/21 01:21:49;;;;;;;;;;;;;;;17.73;100.00;99860.72;5001720;28;20014;-76
2023/09/21 01:24:14;;;;;;;;;;;;;;;17.79;100.00;99843.66;4997159;28;20359;-74
2023/09/21 01:26:40;;;;;;;;;;;;;;;17.81;100.00;99844.31;4995082;28;19925;-73
2023/09/21 01:29:06;;;;;;;;;;;;;;;17.76;100.00;99833.16;4996069;28;19921;-72
2023/09/21 01:31:31;;;;;;;;;;;;;;;17.67;100.00;99848.75;4990658;28;19921;-72
2023/09/21 01:33:59;;;;;;;;;;;;;;;17.69;100.00;99841.25;4988601;28;20108;-74
2023/09/21 01:36:24;;;;;;;;;;;;;;;17.45;100.00;99787.31;4992697;28;20020;-73
2023/09/21 01:38:50;;;;;;;;;;;;;;;17.76;100.00;99830.47;4993279;28;19930;-74
2023/09/21 01:41:16;;;;;;;;;;;;;;;17.77;100.00;99820.47;5007373;28;20016;-71
2023/09/21 01:43:41;;;;;;;;;;;;;;;17.80;100.00;99826.34;5008118;28;19936;-75
2023/09/21 01:46:06;;;;;;;;;;;;;;;17.72;100.00;99812.91;4995525;28;19921;-74
2023/09/21 01:48:32;;;;;;;;;;;;;;;17.73;100.00;99811.88;4992660;28;19929;-71
2023/09/21 01:50:57;;;;;;;;;;;;;;;17.63;100.00;99817.56;5000492;28;19921;-72
2023/09/21 01:53:23;;;;;;;;;;;;;;;17.56;100.00;99804.97;4996163;28;19964;-71
2023/09/21 01:55:49;;;;;;;;;;;;;;;17.69;100.00;99808.69;4995866;28;21208;-76
2023/09/21 01:58:15;;;;;;;;;;;;;;;17.69;100.00;99802.41;4991973;28;19921;-74
2023/09/21 02:00:41;;;;;;;;;;;;;;;17.62;100.00;99794.19;5008824;28;19925;-74
2023/09/21 02:03:12;;;;;;;;;;;;;;;17.62;100.00;99798.78;4992157;28;19925;-72
2023/09/21 02:05:37;;;;;;;;;;;;;;;17.72;100.00;99785.75;4989898;28;20008;-77
2023/09/21 02:08:04;;;;;;;;;;;;;;;17.62;100.00;99768.94;4996111;28;19921;-72
2023/09/21 02:10:30;;;;;;;;;;;;;;;17.61;100.00;99788.97;4976747;28;19926;-73
2023/09/21 02:12:56;;;;;;;;;;;;;;;17.65;100.00;99796.50;4990350;28;19922;-72
2023/09/21 02:15:22;;;;;;;;;;;;;;;17.65;100.00;99798.41;4993191;28;19949;-73
2023/09/21 02:17:47;;;;;;;;;;;;;;;17.62;100.00;99794.19;4993883;28;20999;-71
2023/09/21 02:20:14;;;;;;;;;;;;;;;17.66;100.00;99795.47;4995713;28;20069;-70
2023/09/21 02:22:43;;;;;;;;;;;;;;;17.56;100.00;99792.25;4991469;28;19932;-72
2023/09/21 02:25:10;;;;;;;;;;;;;;;17.44;100.00;99791.06;4991645;28;19968;-72
2023/09/21 02:27:35;;;;;;;;;;;;;;;17.39;100.00;99795.16;5003152;28;20008;-72
2023/09/21 02:30:01;;;;;;;;;;;;;;;17.43;100.00;99781.22;4988431;28;20044;-72
2023/09/21 02:32:26;;;;;;;;;;;;;;;17.27;100.00;99785.84;4992023;28;19921;-73
2023/09/21 02:34:52;;;;;;;;;;;;;;;17.25;100.00;99785.19;5006285;28;20039;-74
2023/09/21 02:37:18;;;;;;;;;;;;;;;17.10;100.00;99787.94;4993822;28;19922;-75
2023/09/21 02:39:43;;;;;;;;;;;;;;;17.13;100.00;99792.13;4994596;28;20580;-73
2023/09/21 02:42:09;;;;;;;;;;;;;;;17.01;100.00;99779.06;4991267;28;19922;-72
2023/09/21 02:44:34;;;;;;;;;;;;;;;16.99;100.00;99780.25;4991013;28;19967;-70
2023/09/21 02:46:59;;;;;;;;;;;;;;;16.86;100.00;99765.47;4989623;28;20526;-70
2023/09/21 02:49:25;;;;;;;;;;;;;;;16.99;100.00;99756.72;4994658;28;19957;-71
2023/09/21 02:51:50;;;;;;;;;;;;;;;17.05;100.00;99766.81;4991561;28;19921;-73
2023/09/21 02:54:17;;;;;;;;;;;;;;;16.90;100.00;99758.66;4991326;28;20383;-73
2023/09/21 02:56:43;;;;;;;;;;;;;;;16.90;100.00;99760.50;4990235;28;19922;-71
2023/09/21 02:59:09;;;;;;;;;;;;;;;16.87;100.00;99764.44;5008242;28;20391;-71
2023/09/21 03:01:34;;;;;;;;;;;;;;;16.75;100.00;99761.34;4991320;28;19943;-74
2023/09/21 03:04:03;;;;;;;;;;;;;;;16.67;100.00;99755.19;4989951;28;19933;-71
2023/09/21 03:06:32;;;;;;;;;;;;;;;16.65;100.00;99758.06;4992113;28;20016;-71
2023/09/21 03:08:57;;;;;;;;;;;;;;;16.63;100.00;99766.41;4995174;28;19921;-71
2023/09/21 03:11:23;;;;;;;;;;;;;;;16.58;100.00;99767.97;4996805;28;20295;-73
2023/09/21 03:13:48;;;;;;;;;;;;;;;16.55;100.00;99754.81;4991749;28;20303;-72
2023/09/21 03:16:17;;;;;;;;;;;;;;;16.56;100.00;99756.47;4989314;28;19943;-71
2023/09/21 03:18:42;;;;;;;;;;;;;;;16.52;100.00;99761.44;4994145;28;19928;-71
2023/09/21 03:21:14;;;;;;;;;;;;;;;16.46;100.00;99763.00;5004647;28;19926;-72
2023/09/21 03:23:40;;;;;;;;;;;;;;;16.48;100.00;99754.69;4989596;28;19933;-71
2023/09/21 03:26:05;;;;;;;;;;;;;;;16.47;100.00;99750.28;4993435;28;20460;-72
2023/09/21 03:28:31;;;;;;;;;;;;;;;16.33;100.00;99750.09;4991575;28;19929;-72
2023/09/21 03:30:56;;;;;;;;;;;;;;;16.32;100.00;99747.56;4993876;28;19964;-72
2023/09/21 03:33:22;;;;;;;;;;;;;;;16.36;100.00;99743.47;5008095;28;19936;-71
2023/09/21 03:35:47;;;;;;;;;;;;;;;16.37;100.00;99741.63;4998864;28;20472;-71
2023/09/21 03:38:12;;;;;;;;;;;;;;;16.36;100.00;99748.88;4992995;28;19921;-72
2023/09/21 03:40:41;;;;;;;;;;;;;;;16.36;100.00;99753.47;4996537;28;19932;-72
2023/09/21 03:43:09;;;;;;;;;;;;;;;16.38;100.00;99754.13;4994823;28;20343;-71
2023/09/21 03:45:35;;;;;;;;;;;;;;;16.43;100.00;99746.25;4999170;28;20024;-71
2023/09/21 03:48:06;;;;;;;;;;;;;;;16.40;100.00;99743.97;4997377;28;19928;-72
2023/09/21 03:50:31;;;;;;;;;;;;;;;16.39;100.00;99745.81;4988598;28;20008;-72
2023/09/21 03:52:57;;;;;;;;;;;;;;;16.37;100.00;99738.91;4979349;28;20470;-71
2023/09/21 03:55:22;;;;;;;;;;;;;;;16.36;100.00;99737.22;4981068;28;19925;-71
2023/09/21 03:57:47;;;;;;;;;;;;;;;16.33;100.00;99736.56;4994555;28;20599;-72
2023/09/21 04:00:29;;;;;;;;;;;;;;;16.37;100.00;99728.91;4992018;28;19956;-71
2023/09/21 04:02:55;;;;;;;;;;;;;;;16.34;100.00;99724.69;4994129;28;20583;-72
2023/09/21 04:05:23;;;;;;;;;;;;;;;16.31;100.00;99727.78;4990657;28;19918;-72
2023/09/21 04:07:48;;;;;;;;;;;;;;;16.34;100.00;99723.84;4988015;28;19932;-72
2023/09/21 04:10:14;;;;;;;;;;;;;;;16.24;100.00;99710.56;4991025;28;19922;-71
2023/09/21 04:12:40;;;;;;;;;;;;;;;16.37;100.00;99723.47;4993342;28;20441;-73
2023/09/21 04:15:06;;;;;;;;;;;;;;;16.38;100.00;99708.91;4993122;28;19921;-72
2023/09/21 04:17:32;;;;;;;;;;;;;;;16.33;100.00;99728.44;4990667;28;20055;-72
2023/09/21 04:19:57;;;;;;;;;;;;;;;16.31;100.00;99719.66;4984173;28;19925;-71
2023/09/21 04:22:22;;;;;;;;;;;;;;;16.35;100.00;99717.41;4995221;28;20008;-71
2023/09/21 04:24:47;;;;;;;;;;;;;;;16.37;100.00;99706.41;4996075;28;19932;-72
2023/09/21 04:27:12;;;;;;;;;;;;;;;16.43;100.00;99708.34;4995102;28;19921;-72
2023/09/21 04:29:38;;;;;;;;;;;;;;;16.47;100.00;99709.66;4990240;28;19925;-71
2023/09/21 04:32:04;;;;;;;;;;;;;;;16.49;100.00;99713.03;4994106;28;19921;-72
2023/09/21 04:34:29;;;;;;;;;;;;;;;16.52;100.00;99715.38;4993315;28;20299;-72
2023/09/21 04:36:54;;;;;;;;;;;;;;;16.51;100.00;99723.69;4996688;28;19981;-70
2023/09/21 04:39:20;;;;;;;;;;;;;;;16.57;100.00;99722.94;4995212;28;20001;-73
2023/09/21 04:41:45;;;;;;;;;;;;;;;16.54;100.00;99718.72;5001418;28;20608;-71
2023/09/21 04:44:10;;;;;;;;;;;;;;;16.62;100.00;99725.91;4990296;28;20015;-72
2023/09/21 04:46:41;;;;;;;;;;;;;;;16.58;100.00;99713.78;5004663;28;20267;-71
2023/09/21 04:49:07;;;;;;;;;;;;;;;16.42;100.00;99712.09;5009273;28;19929;-71
2023/09/21 04:51:33;;;;;;;;;;;;;;;16.52;100.00;99712.66;4988003;28;19918;-71
2023/09/21 04:53:58;;;;;;;;;;;;;;;16.54;100.00;99716.03;4992356;28;19972;-72
2023/09/21 04:56:23;;;;;;;;;;;;;;;16.47;100.00;99712.38;5004958;28;19921;-71
2023/09/21 04:58:50;;;;;;;;;;;;;;;16.45;100.00;99704.44;5006468;28;19961;-71
2023/09/21 05:01:15;;;;;;;;;;;;;;;16.44;100.00;99707.31;4990047;28;21274;-71
2023/09/21 05:03:40;;;;;;;;;;;;;;;16.46;100.00;99703.41;4994682;28;19932;-71
2023/09/21 05:06:06;;;;;;;;;;;;;;;16.40;100.00;99706.84;4996502;28;20257;-71
2023/09/21 05:08:36;;;;;;;;;;;;;;;16.42;100.00;99709.41;4992078;28;20760;-72
2023/09/21 05:11:01;;;;;;;;;;;;;;;16.43;100.00;99706.50;4995187;28;20043;-73
2023/09/21 05:13:27;;;;;;;;;;;;;;;16.41;100.00;99705.84;4992173;28;20568;-72
2023/09/21 05:15:53;;;;;;;;;;;;;;;16.46;100.00;99700.69;5009548;28;19925;-72
2023/09/21 05:18:18;;;;;;;;;;;;;;;16.46;100.00;99703.41;5013648;28;20743;-72
2023/09/21 05:20:45;;;;;;;;;;;;;;;16.46;100.00;99708.84;4992108;28;19948;-72
2023/09/21 05:23:10;;;;;;;;;;;;;;;16.52;100.00;99704.53;4992642;28;20367;-71
2023/09/21 05:25:35;;;;;;;;;;;;;;;16.54;100.00;99712.50;4991249;28;20540;-73
2023/09/21 05:28:01;;;;;;;;;;;;;;;16.57;100.00;99709.38;4994778;28;19967;-73
2023/09/21 05:30:28;;;;;;;;;;;;;;;16.62;100.00;99706.94;4991387;28;19967;-72
2023/09/21 05:32:56;;;;;;;;;;;;;;;16.62;100.00;99707.81;4986212;28;20260;-73
2023/09/21 05:35:23;;;;;;;;;;;;;;;16.62;100.00;99701.53;5010102;28;20249;-73
2023/09/21 05:37:48;;;;;;;;;;;;;;;16.62;100.00;99705.09;4990624;28;20028;-72
2023/09/21 05:40:14;;;;;;;;;;;;;;;16.61;100.00;99694.44;4994623;28;19929;-71
2023/09/21 05:42:41;;;;;;;;;;;;;;;16.61;100.00;99698.00;4995925;28;20367;-72
2023/09/21 05:45:07;;;;;;;;;;;;;;;16.59;100.00;99697.34;4993604;28;19921;-73
2023/09/21 05:47:32;;;;;;;;;;;;;;;16.57;100.00;99695.84;4991261;28;19928;-72
2023/09/21 05:49:57;;;;;;;;;;;;;;;16.56;100.00;99694.16;4997607;28;19917;-71
2023/09/21 05:52:24;;;;;;;;;;;;;;;16.62;100.00;99696.97;4994680;28;19917;-73
2023/09/21 05:54:49;;;;;;;;;;;;;;;16.61;100.00;99694.44;4998025;28;19925;-74
2023/09/21 05:57:15;;;;;;;;;;;;;;;16.59;100.00;99691.06;4996799;28;20287;-73
2023/09/21 05:59:41;;;;;;;;;;;;;;;16.62;100.00;99693.41;4996153;28;19928;-71
2023/09/21 06:02:08;;;;;;;;;;;;;;;16.67;100.00;99690.97;4996195;28;19921;-73
2023/09/21 06:04:34;;;;;;;;;;;;;;;16.68;100.00;99684.53;4997964;28;19925;-74
2023/09/21 06:07:00;;;;;;;;;;;;;;;16.64;100.00;99688.63;4992478;28;19952;-72
2023/09/21 06:09:25;;;;;;;;;;;;;;;16.64;100.00;99691.34;4992923;28;19921;-72
2023/09/21 06:11:51;;;;;;;;;;;;;;;16.62;100.00;99690.69;4991721;28;19967;-73
2023/09/21 06:14:17;;;;;;;;;;;;;;;16.67;100.00;99685.56;4976179;28;20004;-72
2023/09/21 06:16:42;;;;;;;;;;;;;;;16.71;100.00;99691.44;4993860;28;19922;-73
2023/09/21 06:19:09;;;;;;;;;;;;;;;16.72;100.00;99688.56;5013038;28;19972;-72
2023/09/21 06:21:35;;;;;;;;;;;;;;;16.78;100.00;99687.81;4991914;28;19929;-71
2023/09/21 06:24:01;;;;;;;;;;;;;;;16.77;100.00;99691.53;4995838;28;20020;-73
2023/09/21 06:26:26;;;;;;;;;;;;;;;16.73;100.00;99698.38;4994730;28;19921;-72
2023/09/21 06:28:51;;;;;;;;;;;;;;;16.67;100.00;99696.41;4995553;28;20378;-72
2023/09/21 06:31:20;;;;;;;;;;;;;;;16.63;100.00;99692.38;4973094;28;20352;-73
2023/09/21 06:33:45;;;;;;;;;;;;;;;16.66;100.00;99693.88;4995526;28;19929;-71
2023/09/21 06:36:20;;;;;;;;;;;;;;;16.62;100.00;99701.53;4993515;28;20387;-75
2023/09/21 06:38:46;;;;;;;;;;;;;;;16.73;100.00;99695.66;5000772;28;20021;-73
2023/09/21 06:41:12;;;;;;;;;;;;;;;16.74;100.00;99707.31;4989926;28;19921;-75
2023/09/21 06:43:38;;;;;;;;;;;;;;;16.79;100.00;99707.59;4992045;28;20308;-72
2023/09/21 06:46:04;;;;;;;;;;;;;;;16.75;100.00;99714.44;4990491;28;19929;-73
2023/09/21 06:48:30;;;;;;;;;;;;;;;16.49;100.00;99716.59;4994749;28;19928;-75
2023/09/21 06:50:55;;;;;;;;;;;;;;;16.32;100.00;99704.22;4992856;28;19922;-74
2023/09/21 06:53:22;;;;;;;;;;;;;;;16.35;100.00;99728.22;4989265;28;20299;-72
2023/09/21 06:55:48;;;;;;;;;;;;;;;16.21;100.00;99727.19;4992593;28;19917;-75
2023/09/21 06:58:13;;;;;;;;;;;;;;;16.08;100.00;99708.03;4996011;28;19928;-75
2023/09/21 07:00:38;;;;;;;;;;;;;;;16.12;100.00;99726.41;4995305;28;19921;-74
2023/09/21 07:03:03;;;;;;;;;;;;;;;16.07;100.00;99726.13;4994420;28;19926;-76
2023/09/21 07:05:29;;;;;;;;;;;;;;;16.11;100.00;99721.22;4993395;28;19921;-74
2023/09/21 07:07:54;;;;;;;;;;;;;;;16.23;100.00;99727.03;4990324;28;20107;-75
2023/09/21 07:10:19;;;;;;;;;;;;;;;16.28;100.00;99730.84;5007261;28;19924;-74
2023/09/21 07:12:45;;;;;;;;;;;;;;;16.30;100.00;99736.06;4998975;28;19921;-75
2023/09/21 07:15:10;;;;;;;;;;;;;;;16.27;100.00;99726.44;4988935;28;20420;-74
2023/09/21 07:17:36;;;;;;;;;;;;;;;16.17;100.00;99715.03;5006769;28;20615;-73
2023/09/21 07:20:04;;;;;;;;;;;;;;;16.23;100.00;99743.25;4995615;28;20387;-77
2023/09/21 07:22:29;;;;;;;;;;;;;;;16.23;100.00;99735.13;4996162;28;20360;-76
2023/09/21 07:24:54;;;;;;;;;;;;;;;16.18;100.00;99747.38;4994051;28;19921;-76
2023/09/21 07:27:22;;;;;;;;;;;;;;;16.21;100.00;99746.13;5001474;28;20139;-74
2023/09/21 07:29:47;;;;;;;;;;;;;;;16.24;100.00;99743.06;4993374;28;20287;-73
2023/09/21 07:32:12;;;;;;;;;;;;;;;16.25;100.00;99744.75;4993923;28;20368;-73
2023/09/21 07:34:37;;;;;;;;;;;;;;;16.25;100.00;99743.94;4997621;28;20348;-74
2023/09/21 07:37:03;;;;;;;;;;;;;;;16.02;100.00;99705.03;4999457;28;19936;-74
2023/09/21 07:39:28;;;;;;;;;;;;;;;16.33;100.00;99736.56;4992576;28;19932;-74
2023/09/21 07:41:53;;;;;;;;;;;;;;;16.34;100.00;99735.53;4990987;28;19980;-74
2023/09/21 07:44:19;;;;;;;;;;;;;;;16.29;100.00;99737.94;4991012;28;20006;-75
2023/09/21 07:46:44;;;;;;;;;;;;;;;16.29;100.00;99737.09;4977754;28;20283;-75
2023/09/21 07:49:09;;;;;;;;;;;;;;;16.28;100.00;99743.56;4992992;28;19924;-75
2023/09/21 07:51:34;;;;;;;;;;;;;;;16.23;100.00;99740.56;4972563;28;20300;-76
2023/09/21 07:54:00;;;;;;;;;;;;;;;16.19;100.00;99746.34;4976183;28;20307;-77
2023/09/21 07:56:26;;;;;;;;;;;;;;;16.18;100.00;99735.66;4996319;28;20314;-76
2023/09/21 07:58:51;;;;;;;;;;;;;;;16.12;100.00;99737.25;4997751;28;19917;-78
2023/09/21 08:01:17;;;;;;;;;;;;;;;16.11;100.00;99740.16;4992461;28;19926;-75
2023/09/21 08:03:42;;;;;;;;;;;;;;;16.09;100.00;99745.75;4991999;28;19933;-77
2023/09/21 08:06:07;;;;;;;;;;;;;;;16.10;100.00;99739.31;4982283;28;19921;-78
2023/09/21 08:08:32;;;;;;;;;;;;;;;16.10;100.00;99747.41;4997149;28;19926;-79
2023/09/21 08:10:57;;;;;;;;;;;;;;;16.07;100.00;99746.97;4995895;28;19918;-78
2023/09/21 08:13:24;;;;;;;;;;;;;;;16.07;100.00;99742.38;4991657;28;19957;-77
2023/09/21 08:15:49;;;;;;;;;;;;;;;16.07;100.00;99745.06;4981440;28;20449;-77
2023/09/21 08:18:14;;;;;;;;;;;;;;;16.10;100.00;99752.00;4991537;28;20218;-77
2023/09/21 08:20:39;;;;;;;;;;;;;;;16.11;100.00;99746.41;4999716;28;20008;-76
2023/09/21 08:23:08;;;;;;;;;;;;;;;16.18;100.00;99746.50;4995227;28;19968;-74
2023/09/21 08:25:35;;;;;;;;;;;;;;;16.12;100.00;99756.22;4996859;28;20415;-79
2023/09/21 08:28:00;;;;;;;;;;;;;;;16.11;100.00;99757.22;4998151;28;19921;-79
2023/09/21 08:30:25;;;;;;;;;;;;;;;16.10;100.00;99752.84;4995294;28;19921;-75
2023/09/21 08:32:51;;;;;;;;;;;;;;;16.06;100.00;99761.50;4973956;28;19921;-79
2023/09/21 08:35:16;;;;;;;;;;;;;;;16.03;100.00;99779.81;5007049;28;19917;-78
2023/09/21 08:37:41;;;;;;;;;;;;;;;15.95;100.00;99777.16;4991672;28;19975;-76
2023/09/21 08:40:07;;;;;;;;;;;;;;;15.96;100.00;99781.53;4993793;28;19940;-77
2023/09/21 08:42:35;;;;;;;;;;;;;;;16.02;100.00;99785.41;4991998;28;20180;-77
2023/09/21 08:45:02;;;;;;;;;;;;;;;15.97;100.00;99791.34;4992890;28;19940;-75
2023/09/21 08:47:28;;;;;;;;;;;;;;;16.03;100.00;99790.63;4994668;28;19921;-78
2023/09/21 08:49:53;;;;;;;;;;;;;;;15.98;100.00;99797.63;4990557;28;19926;-79
2023/09/21 08:52:19;;;;;;;;;;;;;;;16.00;100.00;99798.28;4991668;28;20011;-79
2023/09/21 08:54:46;;;;;;;;;;;;;;;15.99;100.00;99799.31;4999086;28;19964;-76
2023/09/21 08:57:12;;;;;;;;;;;;;;;15.98;100.00;99803.03;4993803;28;19918;-76
2023/09/21 08:59:39;;;;;;;;;;;;;;;16.03;100.00;99806.03;4992695;28;19921;-78
2023/09/21 09:02:04;;;;;;;;;;;;;;;16.03;100.00;99811.44;4986826;28;19944;-78
2023/09/21 09:04:30;;;;;;;;;;;;;;;16.08;100.00;99819.03;4997565;28;19964;-79
2023/09/21 09:06:55;;;;;;;;;;;;;;;16.06;100.00;99824.63;4991540;28;20011;-74
2023/09/21 09:09:22;;;;;;;;;;;;;;;15.96;100.00;99807.78;5008173;28;20323;-77
2023/09/21 09:11:47;;;;;;;;;;;;;;;16.12;100.00;99834.72;4979882;28;20439;-77
2023/09/21 09:14:16;;;;;;;;;;;;;;;16.17;100.00;99829.63;4980307;28;20300;-77
2023/09/21 09:16:42;;;;;;;;;;;;;;;16.22;100.00;99831.78;4995595;28;19922;-77
2023/09/21 09:19:08;;;;;;;;;;;;;;;16.33;100.00;99834.06;4995800;28;19944;-77
2023/09/21 09:21:34;;;;;;;;;;;;;;;16.40;100.00;99826.03;4992546;28;20420;-77
2023/09/21 09:23:59;;;;;;;;;;;;;;;16.53;100.00;99820.00;5000454;28;19932;-76
2023/09/21 09:26:25;;;;;;;;;;;;;;;16.59;100.00;99818.41;4998270;28;19918;-75
2023/09/21 09:28:50;;;;;;;;;;;;;;;16.68;100.00;99816.50;4983818;28;20272;-75
2023/09/21 09:31:18;;;;;;;;;;;;;;;16.68;100.00;99820.03;4992601;28;20391;-75
2023/09/21 09:33:49;;;;;;;;;;;;;;;16.78;100.00;99817.06;4992823;28;19925;-75
2023/09/21 09:36:14;;;;;;;;;;;;;;;16.74;100.00;99818.44;5000607;28;19925;-75
2023/09/21 09:38:40;;;;;;;;;;;;;;;16.75;100.00;99828.25;4993470;28;20320;-75
2023/09/21 09:41:06;;;;;;;;;;;;;;;16.81;100.00;99818.56;4994897;28;19922;-74
2023/09/21 09:43:31;;;;;;;;;;;;;;;16.85;100.00;99811.72;5001091;28;19948;-75
2023/09/21 09:45:58;;;;;;;;;;;;;;;16.84;100.00;99810.91;4977007;28;19921;-75
2023/09/21 09:48:25;;;;;;;;;;;;;;;16.90;100.00;99799.31;4996898;28;20044;-75
2023/09/21 09:50:54;;;;;;;;;;;;;;;16.73;100.00;99800.50;5001617;28;19928;-75
2023/09/21 09:53:23;;;;;;;;;;;;;;;16.61;100.00;99805.53;4991081;28;19966;-75
2023/09/21 09:55:48;;;;;;;;;;;;;;;16.60;100.00;99803.84;4993963;28;19925;-75
2023/09/21 09:58:13;;;;;;;;;;;;;;;16.46;100.00;99800.09;4996598;28;19956;-76
2023/09/21 10:00:44;;;;;;;;;;;;;;;16.43;100.00;99795.88;4995650;28;19979;-75
2023/09/21 10:03:09;;;;;;;;;;;;;;;16.40;100.00;99798.97;5007300;28;19968;-75
2023/09/21 10:05:38;;;;;;;;;;;;;;;16.43;100.00;99805.88;4975479;28;20004;-75
2023/09/21 10:08:04;;;;;;;;;;;;;;;16.44;100.00;99803.00;4996201;28;19936;-75
2023/09/21 10:10:36;;;;;;;;;;;;;;;16.47;100.00;99805.34;4998167;28;19922;-75
2023/09/21 10:13:01;;;;;;;;;;;;;;;16.46;100.00;99808.22;4997237;28;20352;-75
2023/09/21 10:15:27;;;;;;;;;;;;;;;16.53;100.00;99802.91;4999460;28;19929;-75
2023/09/21 10:17:56;;;;;;;;;;;;;;;16.53;100.00;99803.75;4991094;28;19963;-75
2023/09/21 10:20:29;;;;;;;;;;;;;;;16.57;100.00;99793.38;5004623;28;19917;-75
2023/09/21 10:22:54;;;;;;;;;;;;;;;16.64;100.00;99794.31;4999007;28;20733;-75
2023/09/21 10:25:35;;;;;;;;;;;;;;;16.74;100.00;99803.03;5001297;28;20052;-74
2023/09/21 10:28:00;;;;;;;;;;;;;;;16.78;100.00;99803.50;4997819;28;19917;-75
2023/09/21 10:30:26;;;;;;;;;;;;;;;16.74;100.00;99794.91;4993343;28;19960;-75
2023/09/21 10:32:51;;;;;;;;;;;;;;;16.73;100.00;99795.06;4996154;28;19965;-74
2023/09/21 10:35:21;;;;;;;;;;;;;;;16.81;100.00;99776.03;4993978;28;20379;-74
2023/09/21 10:37:56;;;;;;;;;;;;;;;16.92;100.00;99774.72;4995333;28;20138;-74
2023/09/21 10:40:25;;;;;;;;;;;;;;;16.92;100.00;99780.13;4993933;28;21543;-75
2023/09/21 10:42:51;;;;;;;;;;;;;;;16.91;100.00;99771.19;4993311;28;19921;-74
2023/09/21 10:45:16;;;;;;;;;;;;;;;16.91;100.00;99765.75;5002513;28;19968;-75
2023/09/21 10:47:44;;;;;;;;;;;;;;;16.94;100.00;99762.66;4998165;28;19945;-74
2023/09/21 10:50:10;;;;;;;;;;;;;;;16.90;100.00;99758.66;4978014;28;20350;-75
2023/09/21 10:52:39;;;;;;;;;;;;;;;17.02;100.00;99750.91;5003218;28;19921;-75
2023/09/21 10:55:04;;;;;;;;;;;;;;;17.07;100.00;99751.19;4996053;28;20374;-74
2023/09/21 10:57:29;;;;;;;;;;;;;;;17.19;100.00;99750.69;4993361;28;19921;-74
2023/09/21 10:59:56;;;;;;;;;;;;;;;17.28;100.00;99749.56;4996661;28;19922;-74
2023/09/21 11:02:22;;;;;;;;;;;;;;;17.27;100.00;99744.31;4985112;28;19956;-74
2023/09/21 11:04:48;;;;;;;;;;;;;;;17.28;100.00;99751.41;4994577;28;20008;-74
2023/09/21 11:07:13;;;;;;;;;;;;;;;17.20;100.00;99742.38;4995671;28;20311;-74
2023/09/21 11:09:39;;;;;;;;;;;;;;;17.19;100.00;99739.84;4990152;28;20730;-74
2023/09/21 11:12:06;;;;;;;;;;;;;;;17.24;100.00;99737.41;4992436;28;19921;-74
2023/09/21 11:14:31;;;;;;;;;;;;;;;17.36;100.00;99735.88;4997006;28;20375;-74
2023/09/21 11:16:56;;;;;;;;;;;;;;;17.32;100.00;99731.88;4993627;28;19932;-74
2023/09/21 11:19:22;;;;;;;;;;;;;;;17.45;100.00;99727.63;4988314;28;19921;-74
2023/09/21 11:21:47;;;;;;;;;;;;;;;17.56;100.00;99723.56;5008714;28;20000;-74
2023/09/21 11:24:12;;;;;;;;;;;;;;;17.66;100.00;99724.09;4998043;28;20315;-74
2023/09/21 11:26:45;;;;;;;;;;;;;;;17.79;100.00;99717.94;4991760;28;20431;-74
2023/09/21 11:29:11;;;;;;;;;;;;;;;17.79;100.00;99717.94;4995707;28;20029;-74
2023/09/21 11:31:37;;;;;;;;;;;;;;;17.88;100.00;99707.78;4995223;28;19950;-74
2023/09/21 11:34:02;;;;;;;;;;;;;;;17.95;100.00;99704.09;4988621;28;19918;-74
2023/09/21 11:36:28;;;;;;;;;;;;;;;18.04;100.00;99707.53;5001377;28;19928;-74
2023/09/21 11:38:53;;;;;;;;;;;;;;;18.07;100.00;99707.16;4996904;28;20423;-74
2023/09/21 11:41:18;;;;;;;;;;;;;;;18.13;100.00;99711.78;4992765;28;20036;-74
2023/09/21 11:43:43;;;;;;;;;;;;;;;18.25;100.00;99711.28;4995403;28;19925;-76
2023/09/21 11:46:10;;;;;;;;;;;;;;;18.24;100.00;99701.44;4992299;28;19931;-74
2023/09/21 11:48:35;;;;;;;;;;;;;;;18.27;100.00;99710.03;4984220;28;19929;-74
2023/09/21 11:51:04;;;;;;;;;;;;;;;18.34;100.00;99703.81;4993681;28;19956;-74
2023/09/21 11:53:30;;;;;;;;;;;;;;;18.47;100.00;99700.34;4993207;28;19921;-73
2023/09/21 11:55:55;;;;;;;;;;;;;;;18.39;100.00;99704.06;4997963;28;20371;-75
2023/09/21 11:58:22;;;;;;;;;;;;;;;18.16;100.00;99691.53;4992805;28;19965;-74
2023/09/21 12:00:53;;;;;;;;;;;;;;;17.74;100.00;99690.53;4994492;28;19928;-74
2023/09/21 12:03:22;;;;;;;;;;;;;;;17.16;100.00;99691.41;4977324;28;19929;-73
2023/09/21 12:05:48;;;;;;;;;;;;;;;17.06;100.00;99702.56;4992269;28;20004;-73
2023/09/21 12:08:19;;;;;;;;;;;;;;;16.90;100.00;99717.13;4973299;28;20308;-74
2023/09/21 12:10:48;;;;;;;;;;;;;;;16.74;100.00;99677.50;4991726;28;20025;-73
2023/09/21 12:13:13;;;;;;;;;;;;;;;15.94;100.00;99710.50;4969215;28;19928;-72
2023/09/21 12:15:40;;;;;;;;;;;;;;;15.91;100.00;99716.28;4990357;28;19925;-76
2023/09/21 12:18:07;;;;;;;;;;;;;;;15.95;100.00;99719.47;4990110;28;21506;-76
2023/09/21 12:20:32;;;;;;;;;;;;;;;15.91;100.00;99710.88;4982643;28;20394;-76
2023/09/21 12:22:58;;;;;;;;;;;;;;;15.73;100.00;99730.94;4992109;28;20158;-74
2023/09/21 12:25:26;;;;;;;;;;;;;;;15.71;100.00;99741.09;4990878;28;19969;-77
2023/09/21 12:27:52;;;;;;;;;;;;;;;15.52;100.00;99758.63;4995446;28;20558;-75
2023/09/21 12:30:17;;;;;;;;;;;;;;;15.42;100.00;99750.75;4999229;28;19922;-77